Aviation Digital Data Service (ADDS)

Output produced by METARs form (1302 UTC 24 May 2019)
found at http://www.aviationweather.gov/metar/data/
 
TAF EGLL 241052Z 2412/2518 33006KT 9999 FEW045 
     PROB30 
     TEMPO 2415/2422 6000 SHRA 
     PROB30 2503/2507 8000 
     PROB30 
     TEMPO 2511/2516 8000 SHRA